NZWN METAR and TAF | Updated Today

NZWN METAR

Wellington International Airport

Observation time: 28 min. ago

NZWN 061930Z AUTO 01010KT 9999 NCD 19/16 Q1006

Need help? Read our tutorial on how to read METARs or read the parsed version below.

Wellington International Airport (NZWN) METAR

  • Weather conditions on Mon, 06 Feb 2023 19:30:00 +0000 (28 min. ago):
  • Present conditions: Dry
  • Clouds: Nil cloud detected
  • Visibility: Greater than 10 km
  • Wind: 10 degrees at 10 knots
  • Temperature: 19 celsius
  • Dew point: 16 celsius
  • Pressure: 1006 millibars
  • Remarks: None


Useful to know...

NZWN TAF

Wellington International Airport

TAF NZWN 061700Z 0618/0800 03008KT CAVOK BECMG 0623/0701 36020G30KT BECMG 0709/0711 33008KT BECMG 0720/0722 18010KT
Observation time: 2:58 hr. ago
Need help? Read our tutorial on how to read TAFs or read the parsed version below.

Parsed version of TAF for Wellington International Airport (NZWN)

  • From 06 February at 18:00 UTC, to day 08 of the month at 00:00 UTC
  • Visibility: Greater than 10 km
  • Wind: 30 degrees at 8
  • Expected to arise soon, from 06 February at 23:00 UTC, to day 07 of the month at 01:00 UTC
  • Wind: 360 degrees at 20
  • Expected to arise soon, from 07 February at 09:00 UTC, to day 07 of the month at 11:00 UTC
  • Wind: 330 degrees at 8
  • Expected to arise soon, from 07 February at 20:00 UTC, to day 07 of the month at 22:00 UTC
  • Wind: 180 degrees at 10